Weather at HCA Florida JFK Hospital Heliport

Public forecast

Using degrees Fahrenheit for public forecast. Weather courtesy of forecast.io.

Closest aviation weather report (METAR) to HCA Florida JFK Hospital Heliport

Closest report is Palm Beach County Park Airport, 0.5 nm (0.9 km) SE.

2024/05/20 05:15 (retrieved 23 minutes ago)

KLNA 200515Z AUTO 00000KT 10SM CLR 27/24 A2991 RMK AO2 T02660242 TSNO

Closest aviation forecast (TAF) to HCA Florida JFK Hospital Heliport

Forecast is more than 6 hours old.

Closest forecast is Homestead ARB Airport, 68.4 nm (126.7 km) SSW.

2024/05/19 19:00 (retrieved 11 hours ago)

TAF KHST 191900Z 1919/2101 21012KT 9999 SCT035 SCT180 QNH2986INS TEMPO 1920/1923 9000 -SHRA VCTS BKN025CB BECMG 1923/1924 25009KT 9999 NSW SCT025 SCT050 BKN120 QNH2985INS TEMPO 2010/2015 8000 -SHRA VCTS BKN020CB BKN080 BECMG 2014/2015 26010G15KT 9999 VCSH SCT025 BKN050 QNH2984INS BECMG 2022/2023 29009KT 9999 VCSH SCT025 BKN050 QNH2984INS TX35/1919Z TN25/2011Z